createdAt,value
2018-05-31T00:00:19.844Z,99.99
2018-05-31T00:01:19.734Z,99.99
2018-05-31T00:02:19.720Z,99.99
2018-05-31T00:03:19.790Z,99.99
2018-05-31T00:04:19.823Z,99.99
2018-05-31T00:05:19.904Z,99.99
2018-05-31T00:06:19.920Z,99.99
2018-05-31T00:07:19.819Z,99.99
2018-05-31T00:08:19.720Z,99.99
2018-05-31T00:09:19.737Z,99.99
2018-05-31T00:10:19.741Z,99.99
2018-05-31T00:11:19.746Z,99.99
2018-05-31T00:12:19.828Z,99.99
2018-05-31T00:13:20.797Z,99.99
2018-05-31T00:14:19.850Z,99.99
2018-05-31T00:15:19.785Z,99.99
2018-05-31T00:16:19.790Z,99.99
2018-05-31T00:17:19.860Z,99.99
2018-05-31T00:18:19.804Z,99.99
2018-05-31T00:19:19.924Z,99.99
2018-05-31T00:20:19.834Z,99.99
2018-05-31T00:21:19.843Z,99.99
2018-05-31T00:22:19.806Z,99.99
2018-05-31T00:23:19.809Z,99.99
2018-05-31T00:24:19.802Z,99.99
2018-05-31T00:25:19.799Z,99.99
2018-05-31T00:26:19.750Z,99.99
2018-05-31T00:27:19.832Z,99.99
2018-05-31T00:28:19.810Z,99.99
2018-05-31T00:29:19.798Z,99.99
2018-05-31T00:30:19.873Z,99.99
2018-05-31T00:31:19.815Z,99.99
2018-05-31T00:32:19.795Z,99.99
2018-05-31T00:33:19.894Z,99.99
2018-05-31T00:34:19.835Z,99.99
2018-05-31T00:35:19.848Z,99.99
2018-05-31T00:36:19.742Z,99.99
2018-05-31T00:37:19.869Z,99.99
2018-05-31T00:38:19.860Z,99.99
2018-05-31T00:39:19.874Z,99.99
2018-05-31T00:40:19.762Z,99.99
2018-05-31T00:41:19.840Z,99.99
2018-05-31T00:42:19.880Z,99.99
2018-05-31T00:43:19.785Z,99.99
2018-05-31T00:44:19.880Z,99.99
2018-05-31T00:45:19.770Z,99.99
2018-05-31T00:46:19.843Z,99.99
2018-05-31T00:47:19.815Z,99.99
2018-05-31T00:48:19.876Z,99.99
2018-05-31T00:49:19.847Z,99.99
2018-05-31T00:50:19.767Z,99.99
2018-05-31T00:51:19.892Z,99.99
2018-05-31T00:52:19.880Z,99.99
2018-05-31T00:53:19.848Z,99.99
2018-05-31T00:54:19.831Z,99.99
2018-05-31T00:55:19.849Z,99.99
2018-05-31T00:56:19.852Z,99.99
2018-05-31T00:57:19.815Z,99.99
2018-05-31T00:58:19.796Z,99.99
2018-05-31T00:59:19.890Z,99.99
2018-05-31T01:00:19.757Z,99.99
2018-05-31T01:01:19.796Z,99.99
2018-05-31T01:02:19.893Z,99.99
2018-05-31T01:03:19.782Z,99.99
2018-05-31T01:04:19.885Z,99.99
2018-05-31T01:05:19.861Z,99.99
2018-05-31T01:06:19.797Z,99.99
2018-05-31T01:07:19.880Z,99.99
2018-05-31T01:08:19.821Z,99.99
2018-05-31T01:09:19.801Z,99.99
2018-05-31T01:10:19.881Z,99.99
2018-05-31T01:11:19.843Z,99.99
2018-05-31T01:12:19.890Z,99.99
2018-05-31T01:13:19.883Z,99.99
2018-05-31T01:14:19.784Z,99.99
2018-05-31T01:15:19.903Z,99.99
2018-05-31T01:16:19.870Z,99.99
2018-05-31T01:17:19.790Z,99.99
2018-05-31T01:18:19.849Z,99.99
2018-05-31T01:19:19.824Z,99.99
2018-05-31T01:20:19.831Z,99.99
2018-05-31T01:21:19.770Z,99.99
2018-05-31T01:22:19.774Z,99.99
2018-05-31T01:23:19.808Z,99.99
2018-05-31T01:24:19.852Z,99.99
2018-05-31T01:25:19.811Z,99.99
2018-05-31T01:26:19.846Z,99.99
2018-05-31T01:27:19.869Z,99.99
2018-05-31T01:28:19.849Z,99.99
2018-05-31T01:29:19.880Z,99.99
2018-05-31T01:30:19.904Z,99.99
2018-05-31T01:31:19.794Z,99.99
2018-05-31T01:32:19.915Z,99.99
2018-05-31T01:33:19.904Z,99.99
2018-05-31T01:34:19.877Z,99.99
2018-05-31T01:35:19.895Z,99.99
2018-05-31T01:36:19.908Z,99.99
2018-05-31T01:37:19.902Z,99.99
2018-05-31T01:38:19.914Z,99.99
2018-05-31T01:39:19.859Z,99.99
2018-05-31T01:40:19.754Z,99.99
2018-05-31T01:41:19.775Z,99.99
2018-05-31T01:42:19.777Z,99.99
2018-05-31T01:43:19.783Z,99.99
2018-05-31T01:44:19.875Z,99.99
2018-05-31T01:45:19.781Z,99.99
2018-05-31T01:46:19.860Z,99.99
2018-05-31T01:47:19.826Z,99.99
2018-05-31T01:48:19.868Z,99.99
2018-05-31T01:49:19.778Z,99.99
2018-05-31T01:50:19.753Z,99.99
2018-05-31T01:51:19.703Z,99.99
2018-05-31T01:52:19.729Z,99.99
2018-05-31T01:53:19.765Z,99.99
2018-05-31T01:54:19.758Z,99.99
2018-05-31T01:55:19.710Z,99.99
2018-05-31T01:56:19.715Z,99.99
2018-05-31T01:57:19.740Z,99.99
2018-05-31T01:58:19.713Z,99.99
2018-05-31T01:59:19.732Z,99.99
2018-05-31T02:00:19.975Z,99.99
2018-05-31T02:01:19.888Z,99.99
2018-05-31T02:02:19.832Z,99.99
2018-05-31T02:03:19.892Z,99.99
2018-05-31T02:04:19.815Z,99.99
2018-05-31T02:05:19.815Z,99.99
2018-05-31T02:06:19.896Z,99.99
2018-05-31T02:07:19.821Z,99.99
2018-05-31T02:08:19.893Z,99.99
2018-05-31T02:09:19.819Z,99.99
2018-05-31T02:10:19.856Z,99.99
2018-05-31T02:11:19.801Z,99.99
2018-05-31T02:12:19.891Z,99.99
2018-05-31T02:13:19.836Z,99.99
2018-05-31T02:14:19.797Z,99.99
2018-05-31T02:15:19.886Z,99.99
2018-05-31T02:16:19.897Z,99.99
2018-05-31T02:17:19.808Z,99.99
2018-05-31T02:18:19.806Z,99.99
2018-05-31T02:19:19.803Z,99.99
2018-05-31T02:20:19.842Z,99.99
2018-05-31T02:21:19.920Z,99.99
2018-05-31T02:22:19.910Z,99.99
2018-05-31T02:23:19.968Z,99.99
2018-05-31T02:24:19.912Z,99.99
2018-05-31T02:25:19.916Z,99.99
2018-05-31T02:26:19.916Z,99.99
2018-05-31T02:27:19.919Z,99.99
2018-05-31T02:28:19.844Z,99.99
2018-05-31T02:29:19.922Z,99.99
2018-05-31T02:30:19.847Z,99.99
2018-05-31T02:31:19.892Z,99.99
2018-05-31T02:32:19.915Z,99.99
2018-05-31T02:33:19.947Z,99.99
2018-05-31T02:34:19.919Z,99.99
2018-05-31T02:35:19.893Z,99.99
2018-05-31T02:36:19.824Z,99.99
2018-05-31T02:37:19.919Z,99.99
2018-05-31T02:38:19.884Z,99.99
2018-05-31T02:39:19.951Z,99.99
2018-05-31T02:40:19.947Z,99.99
2018-05-31T02:41:19.922Z,99.99
2018-05-31T02:42:19.886Z,99.99
2018-05-31T02:43:19.881Z,99.99
2018-05-31T02:44:19.930Z,99.99
2018-05-31T02:45:19.903Z,99.99
2018-05-31T02:46:19.830Z,99.99
2018-05-31T02:47:19.886Z,99.99
2018-05-31T02:48:19.893Z,99.99
2018-05-31T02:49:19.944Z,99.99
2018-05-31T02:50:19.912Z,99.99
2018-05-31T02:51:19.813Z,99.99
2018-05-31T02:52:19.926Z,99.99
2018-05-31T02:53:19.934Z,99.99
2018-05-31T02:54:19.859Z,99.99
2018-05-31T02:55:19.861Z,99.99
2018-05-31T02:56:19.865Z,99.99
2018-05-31T02:57:19.864Z,99.99
2018-05-31T02:58:19.940Z,99.99
2018-05-31T02:59:19.938Z,99.99
2018-05-31T03:00:19.949Z,99.99
2018-05-31T03:01:19.896Z,99.99
2018-05-31T03:02:19.917Z,99.99
2018-05-31T03:03:19.855Z,99.99
2018-05-31T03:04:19.874Z,99.99
2018-05-31T03:05:19.943Z,99.99
2018-05-31T03:06:19.899Z,99.99
2018-05-31T03:07:19.877Z,99.99
2018-05-31T03:08:19.863Z,99.99
2018-05-31T03:09:19.939Z,99.99
2018-05-31T03:10:19.923Z,99.99
2018-05-31T03:11:19.849Z,99.99
2018-05-31T03:12:19.841Z,99.99
2018-05-31T03:13:19.904Z,99.99
2018-05-31T03:14:19.899Z,99.99
2018-05-31T03:15:19.848Z,99.99
2018-05-31T03:16:19.899Z,99.99
2018-05-31T03:17:19.938Z,99.99
2018-05-31T03:18:19.820Z,99.99
2018-05-31T03:19:19.882Z,99.99
2018-05-31T03:20:19.835Z,99.99
2018-05-31T03:21:19.882Z,99.99
2018-05-31T03:22:19.954Z,99.99
2018-05-31T03:23:19.884Z,99.99
2018-05-31T03:24:19.954Z,99.99
2018-05-31T03:25:19.882Z,99.99
2018-05-31T03:26:19.959Z,99.99
2018-05-31T03:27:19.895Z,99.99
2018-05-31T03:28:19.887Z,99.99
2018-05-31T03:29:19.958Z,99.99
2018-05-31T03:30:19.960Z,99.99
2018-05-31T03:31:19.913Z,99.99
2018-05-31T03:32:19.922Z,99.99
2018-05-31T03:33:19.865Z,99.99
2018-05-31T03:34:19.881Z,99.99
2018-05-31T03:35:19.874Z,99.99
2018-05-31T03:36:19.960Z,99.99
2018-05-31T03:37:19.956Z,99.99
2018-05-31T03:38:19.992Z,99.99
2018-05-31T03:39:19.976Z,99.99
2018-05-31T03:40:19.959Z,99.99
2018-05-31T03:41:19.896Z,99.99
2018-05-31T03:42:19.927Z,99.99
2018-05-31T03:43:19.964Z,99.99
2018-05-31T03:44:19.967Z,99.99
2018-05-31T03:45:19.966Z,99.99
2018-05-31T03:46:19.922Z,99.99
2018-05-31T03:47:19.911Z,99.99
2018-05-31T03:48:19.903Z,99.99
2018-05-31T03:49:19.901Z,99.99
2018-05-31T03:50:19.902Z,99.99
2018-05-31T03:51:19.947Z,99.99
2018-05-31T03:52:19.998Z,99.99
2018-05-31T03:53:19.934Z,99.99
2018-05-31T03:54:19.945Z,99.99
2018-05-31T03:55:19.940Z,99.99
2018-05-31T03:56:19.954Z,99.99
2018-05-31T03:57:19.874Z,99.99
2018-05-31T03:58:20.004Z,99.99
2018-05-31T03:59:19.893Z,99.99
2018-05-31T04:00:19.941Z,99.99
2018-05-31T04:01:19.974Z,99.99
2018-05-31T04:02:19.910Z,99.99
2018-05-31T04:03:19.978Z,99.99
2018-05-31T04:04:19.907Z,99.99
2018-05-31T04:05:19.911Z,99.99
2018-05-31T04:06:19.941Z,99.99
2018-05-31T04:07:19.909Z,99.99
2018-05-31T04:08:19.984Z,99.99
2018-05-31T04:09:19.909Z,99.99
2018-05-31T04:10:19.984Z,99.99
2018-05-31T04:11:19.996Z,99.99
2018-05-31T04:12:19.923Z,99.99
2018-05-31T04:13:19.952Z,99.99
2018-05-31T04:14:20.013Z,99.99
2018-05-31T04:15:20.009Z,99.99
2018-05-31T04:16:19.910Z,99.99
2018-05-31T04:17:20.021Z,99.99
2018-05-31T04:18:19.968Z,99.99
2018-05-31T04:19:19.910Z,99.99
2018-05-31T04:20:19.953Z,99.99
2018-05-31T04:21:19.951Z,99.99
2018-05-31T04:22:20.030Z,99.99
2018-05-31T04:23:20.024Z,99.99
2018-05-31T04:24:19.995Z,99.99
2018-05-31T04:25:19.954Z,99.99
2018-05-31T04:26:19.956Z,99.99
2018-05-31T04:27:20.007Z,99.99
2018-05-31T04:28:19.911Z,99.99
2018-05-31T04:29:20.019Z,99.99
2018-05-31T04:30:20.072Z,99.99
2018-05-31T04:31:19.985Z,99.99
2018-05-31T04:32:19.867Z,99.99
2018-05-31T04:33:19.930Z,99.99
2018-05-31T04:34:19.986Z,99.99
2018-05-31T04:35:19.957Z,99.99
2018-05-31T04:36:19.990Z,99.99
2018-05-31T04:37:19.929Z,99.99
2018-05-31T04:38:19.978Z,99.99
2018-05-31T04:39:19.975Z,99.99
2018-05-31T04:40:19.981Z,99.99
2018-05-31T04:41:20.002Z,99.99
2018-05-31T04:42:19.936Z,99.99
2018-05-31T04:43:20.008Z,99.99
2018-05-31T04:44:20.005Z,99.99
2018-05-31T04:45:20.006Z,99.99
2018-05-31T04:46:19.895Z,99.99
2018-05-31T04:47:20.006Z,99.99
2018-05-31T04:48:19.964Z,99.99
2018-05-31T04:49:20.011Z,99.99
2018-05-31T04:50:19.943Z,99.99
2018-05-31T04:51:19.942Z,99.99
2018-05-31T04:52:20.013Z,99.99
2018-05-31T04:53:20.028Z,99.99
2018-05-31T04:54:19.945Z,99.99
2018-05-31T04:55:20.014Z,99.99
2018-05-31T04:56:19.944Z,99.99
2018-05-31T04:57:19.947Z,99.99
2018-05-31T04:58:20.013Z,99.99
2018-05-31T04:59:20.012Z,99.99
2018-05-31T05:00:19.948Z,99.99
2018-05-31T05:01:19.918Z,99.99
2018-05-31T05:02:20.017Z,99.99
2018-05-31T05:03:19.982Z,99.99
2018-05-31T05:04:19.937Z,99.99
2018-05-31T05:05:20.043Z,99.99
2018-05-31T05:06:19.994Z,99.99
2018-05-31T05:07:19.987Z,99.99
2018-05-31T05:08:20.054Z,99.99
2018-05-31T05:09:19.940Z,99.99
2018-05-31T05:10:19.998Z,99.99
2018-05-31T05:11:20.054Z,99.99
2018-05-31T05:12:20.058Z,99.99
2018-05-31T05:13:20.025Z,99.99
2018-05-31T05:14:20.052Z,99.99
2018-05-31T05:15:19.985Z,99.99
2018-05-31T05:16:19.991Z,99.99
2018-05-31T05:17:19.929Z,99.99
2018-05-31T05:18:20.050Z,99.99
2018-05-31T05:19:20.056Z,99.99
2018-05-31T05:20:19.951Z,99.99
2018-05-31T05:21:19.965Z,99.99
2018-05-31T05:22:20.025Z,99.99
2018-05-31T05:23:19.948Z,99.99
2018-05-31T05:24:20.073Z,99.99
2018-05-31T05:25:19.965Z,99.99
2018-05-31T05:26:20.056Z,99.99
2018-05-31T05:27:20.057Z,99.99
2018-05-31T05:28:19.973Z,99.99
2018-05-31T05:29:19.989Z,99.99
2018-05-31T05:30:19.929Z,99.99
2018-05-31T05:31:19.966Z,99.99
2018-05-31T05:32:20.030Z,99.99
2018-05-31T05:33:19.968Z,99.99
2018-05-31T05:34:19.969Z,99.99
2018-05-31T05:35:20.043Z,99.99
2018-05-31T05:36:20.039Z,99.99
2018-05-31T05:37:19.968Z,99.99
2018-05-31T05:38:19.920Z,99.99
2018-05-31T05:39:20.060Z,99.99
2018-05-31T05:40:20.005Z,99.99
2018-05-31T05:41:20.080Z,99.99
2018-05-31T05:42:20.046Z,99.99
2018-05-31T05:43:20.038Z,99.99
2018-05-31T05:44:20.023Z,99.99
2018-05-31T05:45:20.066Z,99.99
2018-05-31T05:46:20.062Z,99.99
2018-05-31T05:47:20.062Z,99.99
2018-05-31T05:48:20.023Z,99.99
2018-05-31T05:49:19.973Z,99.99
2018-05-31T05:50:20.074Z,99.99
2018-05-31T05:51:20.028Z,99.99
2018-05-31T05:52:19.953Z,99.99
2018-05-31T05:53:20.025Z,99.99
2018-05-31T05:54:20.025Z,99.99
2018-05-31T05:55:19.968Z,99.99
2018-05-31T05:56:20.059Z,99.99
2018-05-31T05:57:20.089Z,99.99
2018-05-31T05:58:20.049Z,99.99
2018-05-31T05:59:20.011Z,99.99
2018-05-31T06:00:20.051Z,99.99
2018-05-31T06:01:20.080Z,99.99
2018-05-31T06:02:20.073Z,99.99
2018-05-31T06:03:20.096Z,99.99
2018-05-31T06:04:20.094Z,99.99
2018-05-31T06:05:19.959Z,99.99
2018-05-31T06:06:20.023Z,99.99
2018-05-31T06:07:20.055Z,99.99
2018-05-31T06:08:20.042Z,99.99
2018-05-31T06:09:20.085Z,99.99
2018-05-31T06:10:20.004Z,99.99
2018-05-31T06:11:19.991Z,99.99
2018-05-31T06:12:19.948Z,99.99
2018-05-31T06:13:19.961Z,99.67
2018-05-31T06:14:20.072Z,98.48
2018-05-31T06:15:19.994Z,96.31
2018-05-31T06:16:20.062Z,94.86
2018-05-31T06:17:20.000Z,94.07
2018-05-31T06:18:20.003Z,94.12
2018-05-31T06:19:20.070Z,92.86
2018-05-31T06:20:20.084Z,92.95
2018-05-31T06:21:20.102Z,93.48
2018-05-31T06:22:20.042Z,93.40
2018-05-31T06:23:19.988Z,93.62
2018-05-31T06:24:19.973Z,93.85
2018-05-31T06:25:20.107Z,94.72
2018-05-31T06:26:20.132Z,94.88
2018-05-31T06:27:20.072Z,95.18
2018-05-31T06:28:19.973Z,94.42
2018-05-31T06:29:20.079Z,94.37
2018-05-31T06:30:20.095Z,94.12
2018-05-31T06:31:19.967Z,93.75
2018-05-31T06:32:20.030Z,93.02
2018-05-31T06:33:20.011Z,92.32
2018-05-31T06:34:20.023Z,91.30
2018-05-31T06:35:20.078Z,89.06
2018-05-31T06:36:20.012Z,86.30
2018-05-31T06:37:20.083Z,85.99
2018-05-31T06:38:20.010Z,85.64
2018-05-31T06:39:20.009Z,84.05
2018-05-31T06:40:20.082Z,83.91
2018-05-31T06:41:20.018Z,83.70
2018-05-31T06:42:20.083Z,83.30
2018-05-31T06:43:20.024Z,82.96
2018-05-31T06:44:20.084Z,83.30
2018-05-31T06:45:20.013Z,83.04
2018-05-31T06:46:20.087Z,83.83
2018-05-31T06:47:20.014Z,84.28
2018-05-31T06:48:20.085Z,83.54
2018-05-31T06:49:20.085Z,84.09
2018-05-31T06:50:20.018Z,83.14
2018-05-31T06:51:20.086Z,80.79
2018-05-31T06:52:20.073Z,80.10
2018-05-31T06:53:20.064Z,79.33
2018-05-31T06:54:20.195Z,81.29
2018-05-31T06:55:20.085Z,83.12
2018-05-31T06:56:20.089Z,80.55
2018-05-31T06:57:20.154Z,79.71
2018-05-31T06:58:20.110Z,78.81
2018-05-31T06:59:20.129Z,77.54
2018-05-31T07:00:20.131Z,78.17
2018-05-31T07:01:20.119Z,79.28
2018-05-31T07:02:20.097Z,78.89
2018-05-31T07:03:20.135Z,79.81
2018-05-31T07:04:20.064Z,78.39
2018-05-31T07:05:20.020Z,76.18
2018-05-31T07:06:20.125Z,74.11
2018-05-31T07:07:20.096Z,73.40
2018-05-31T07:08:20.064Z,72.95
2018-05-31T07:09:20.063Z,73.58
2018-05-31T07:10:20.136Z,73.71
2018-05-31T07:11:20.122Z,71.78
2018-05-31T07:12:20.103Z,71.54
2018-05-31T07:13:20.159Z,71.49
2018-05-31T07:14:20.012Z,72.33
2018-05-31T07:15:20.038Z,73.01
2018-05-31T07:16:20.078Z,72.95
2018-05-31T07:17:20.102Z,72.72
2018-05-31T07:18:20.104Z,71.39
2018-05-31T07:19:20.131Z,71.28
2018-05-31T07:20:20.145Z,70.84
2018-05-31T07:21:20.113Z,71.62
2018-05-31T07:22:20.111Z,71.42
2018-05-31T07:23:20.039Z,72.36
2018-05-31T07:24:20.115Z,72.85
2018-05-31T07:25:20.112Z,73.69
2018-05-31T07:26:20.041Z,73.50
2018-05-31T07:27:20.130Z,71.91
2018-05-31T07:28:20.116Z,71.44
2018-05-31T07:29:20.044Z,73.50
2018-05-31T07:30:20.116Z,70.27
2018-05-31T07:31:20.019Z,70.11
2018-05-31T07:32:20.056Z,70.53
2018-05-31T07:33:19.986Z,71.78
2018-05-31T07:34:20.055Z,71.65
2018-05-31T07:35:20.016Z,69.46
2018-05-31T07:36:20.081Z,69.44
2018-05-31T07:37:20.011Z,70.04
2018-05-31T07:38:20.093Z,69.54
2018-05-31T07:39:20.013Z,71.52
2018-05-31T07:40:20.049Z,70.24
2018-05-31T07:41:20.056Z,69.75
2018-05-31T07:42:20.089Z,69.20
2018-05-31T07:43:20.101Z,70.66
2018-05-31T07:44:20.189Z,67.62
2018-05-31T07:45:20.153Z,69.12
2018-05-31T07:46:20.183Z,67.49
2018-05-31T07:47:20.127Z,67.13
2018-05-31T07:48:20.092Z,65.96
2018-05-31T07:49:20.096Z,65.39
2018-05-31T07:50:20.127Z,66.89
2018-05-31T07:51:20.097Z,64.57
2018-05-31T07:52:20.123Z,67.20
2018-05-31T07:53:20.070Z,66.95
2018-05-31T07:54:20.165Z,66.95
2018-05-31T07:55:20.050Z,65.94
2018-05-31T07:56:20.095Z,66.35
2018-05-31T07:57:20.151Z,66.71
2018-05-31T07:58:20.107Z,67.28
2018-05-31T07:59:20.145Z,66.92
2018-05-31T08:00:20.048Z,67.98
2018-05-31T08:01:20.155Z,67.91
2018-05-31T08:02:20.096Z,67.08
2018-05-31T08:03:20.099Z,65.39
2018-05-31T08:04:20.125Z,67.54
2018-05-31T08:05:20.017Z,65.86
2018-05-31T08:06:20.014Z,67.88
2018-05-31T08:07:20.126Z,65.22
2018-05-31T08:08:20.087Z,64.82
2018-05-31T08:09:20.019Z,65.45
2018-05-31T08:10:20.131Z,64.82
2018-05-31T08:11:20.166Z,63.98
2018-05-31T08:12:20.084Z,63.02
2018-05-31T08:13:20.171Z,63.43
2018-05-31T08:14:20.100Z,62.33
2018-05-31T08:15:20.067Z,62.84
2018-05-31T08:16:20.106Z,64.46
2018-05-31T08:17:20.099Z,64.59
2018-05-31T08:18:20.069Z,65.26
2018-05-31T08:19:20.138Z,64.95
2018-05-31T08:20:20.142Z,64.75
2018-05-31T08:21:20.086Z,65.39
2018-05-31T08:22:20.077Z,67.33
2018-05-31T08:23:20.081Z,61.61
2018-05-31T08:24:20.148Z,59.45
2018-05-31T08:25:20.151Z,58.43
2018-05-31T08:26:20.147Z,58.12
2018-05-31T08:27:20.083Z,59.78
2018-05-31T08:28:20.090Z,58.43
2018-05-31T08:29:20.086Z,60.17
2018-05-31T08:30:20.088Z,60.55
2018-05-31T08:31:20.135Z,59.32
2018-05-31T08:32:20.153Z,60.33
2018-05-31T08:33:20.092Z,59.28
2018-05-31T08:34:20.186Z,59.07
2018-05-31T08:35:20.159Z,62.43
2018-05-31T08:36:20.084Z,58.79
2018-05-31T08:37:20.158Z,56.31
2018-05-31T08:38:20.098Z,57.51
2018-05-31T08:39:20.158Z,57.82
2018-05-31T08:40:20.094Z,59.07
2018-05-31T08:41:20.158Z,54.20
2018-05-31T08:42:20.066Z,53.77
2018-05-31T08:43:20.060Z,56.11
2018-05-31T08:44:20.106Z,55.45
2018-05-31T08:45:20.016Z,55.80
2018-05-31T08:46:20.022Z,54.28
2018-05-31T08:47:20.063Z,55.52
2018-05-31T08:48:20.063Z,55.17
2018-05-31T08:49:20.113Z,55.83
2018-05-31T08:50:20.179Z,55.63
2018-05-31T08:51:20.115Z,51.82
2018-05-31T08:52:20.165Z,52.78
2018-05-31T08:53:20.186Z,53.69
2018-05-31T08:54:20.128Z,54.25
2018-05-31T08:55:20.144Z,53.84
2018-05-31T08:56:20.185Z,53.47
2018-05-31T08:57:20.159Z,53.72
2018-05-31T08:58:20.200Z,54.61
2018-05-31T08:59:20.129Z,56.77
2018-05-31T09:00:20.153Z,55.65
2018-05-31T09:01:20.075Z,55.80
2018-05-31T09:02:20.132Z,57.00
2018-05-31T09:03:20.071Z,56.18
2018-05-31T09:04:20.138Z,56.95
2018-05-31T09:05:20.150Z,55.85
2018-05-31T09:06:20.213Z,53.42
2018-05-31T09:07:20.136Z,55.24
2018-05-31T09:08:20.010Z,54.61
2018-05-31T09:09:20.146Z,56.29
2018-05-31T09:10:20.155Z,56.39
2018-05-31T09:11:20.151Z,56.61
2018-05-31T09:12:20.153Z,55.35
2018-05-31T09:13:20.176Z,57.10
2018-05-31T09:14:20.117Z,53.21
2018-05-31T09:15:20.211Z,54.37
2018-05-31T09:16:20.158Z,51.71
2018-05-31T09:17:20.214Z,51.74
2018-05-31T09:18:20.083Z,51.79
2018-05-31T09:19:20.212Z,52.50
2018-05-31T09:20:20.219Z,53.23
2018-05-31T09:21:20.091Z,52.60
2018-05-31T09:22:20.182Z,50.27
2018-05-31T09:23:20.116Z,49.85
2018-05-31T09:24:20.182Z,49.92
2018-05-31T09:25:20.173Z,53.84
2018-05-31T09:26:20.188Z,47.48
2018-05-31T09:27:20.125Z,50.22
2018-05-31T09:28:20.187Z,49.19
2018-05-31T09:29:20.126Z,49.67
2018-05-31T09:30:20.195Z,48.06
2018-05-31T09:31:20.194Z,49.47
2018-05-31T09:32:20.122Z,50.38
2018-05-31T09:33:20.197Z,50.07
2018-05-31T09:34:20.195Z,51.08
2018-05-31T09:35:20.125Z,49.32
2018-05-31T09:36:20.215Z,50.66
2018-05-31T09:37:20.197Z,48.79
2018-05-31T09:38:20.130Z,46.38
2018-05-31T09:39:20.194Z,45.02
2018-05-31T09:40:20.127Z,43.72
2018-05-31T09:41:20.132Z,45.02
2018-05-31T09:42:20.238Z,44.68
2018-05-31T09:43:20.118Z,45.87
2018-05-31T09:44:20.239Z,42.95
2018-05-31T09:45:20.236Z,43.57
2018-05-31T09:46:20.205Z,43.95
2018-05-31T09:47:20.182Z,44.37
2018-05-31T09:48:20.201Z,47.00
2018-05-31T09:49:20.228Z,44.82
2018-05-31T09:50:20.112Z,46.55
2018-05-31T09:51:20.246Z,45.55
2018-05-31T09:52:20.184Z,44.55
2018-05-31T09:53:20.146Z,44.30
2018-05-31T09:54:20.187Z,42.78
2018-05-31T09:55:20.205Z,42.05
2018-05-31T09:56:20.239Z,44.95
2018-05-31T09:57:20.210Z,45.82
2018-05-31T09:58:20.292Z,44.97
2018-05-31T09:59:20.250Z,45.07
2018-05-31T10:00:20.151Z,47.48
2018-05-31T10:01:20.119Z,48.34
2018-05-31T10:02:20.110Z,46.58
2018-05-31T10:03:20.207Z,46.70
2018-05-31T10:04:20.173Z,49.42
2018-05-31T10:05:20.115Z,47.20
2018-05-31T10:06:20.251Z,52.30
2018-05-31T10:07:20.248Z,44.12
2018-05-31T10:08:20.140Z,46.50
2018-05-31T10:09:20.192Z,45.77
2018-05-31T10:10:20.191Z,45.93
2018-05-31T10:11:20.114Z,44.90
2018-05-31T10:12:20.172Z,45.10
2018-05-31T10:13:20.138Z,48.92
2018-05-31T10:14:20.220Z,46.38
2018-05-31T10:15:20.192Z,48.36
2018-05-31T10:16:20.222Z,46.45
2018-05-31T10:17:20.192Z,48.11
2018-05-31T10:18:20.245Z,52.81
2018-05-31T10:19:20.183Z,51.37
2018-05-31T10:20:20.263Z,52.88
2018-05-31T10:21:20.241Z,47.28
2018-05-31T10:22:20.079Z,48.77
2018-05-31T10:23:20.088Z,47.51
2018-05-31T10:24:20.081Z,46.75
2018-05-31T10:25:20.132Z,47.38
2018-05-31T10:26:20.172Z,50.07
2018-05-31T10:27:20.133Z,54.10
2018-05-31T10:28:20.174Z,47.86
2018-05-31T10:29:20.175Z,52.83
2018-05-31T10:30:20.176Z,49.34
2018-05-31T10:31:20.086Z,52.20
2018-05-31T10:32:20.234Z,50.78
2018-05-31T10:33:20.169Z,50.00
2018-05-31T10:34:20.235Z,56.39
2018-05-31T10:35:20.271Z,46.63
2018-05-31T10:36:20.235Z,47.10
2018-05-31T10:37:20.168Z,47.96
2018-05-31T10:38:20.166Z,46.98
2018-05-31T10:39:20.238Z,48.06
2018-05-31T10:40:20.170Z,48.36
2018-05-31T10:41:20.168Z,50.15
2018-05-31T10:42:20.238Z,47.91
2018-05-31T10:43:20.265Z,51.59
2018-05-31T10:44:20.244Z,51.08
2018-05-31T10:45:20.240Z,46.75
2018-05-31T10:46:20.303Z,48.54
2018-05-31T10:47:20.269Z,47.68
2018-05-31T10:48:20.219Z,49.69
2018-05-31T10:49:20.150Z,46.18
2018-05-31T10:50:20.268Z,47.38
2018-05-31T10:51:20.212Z,48.89
2018-05-31T10:52:20.205Z,50.13
2018-05-31T10:53:20.224Z,46.10
2018-05-31T10:54:20.246Z,45.82
2018-05-31T10:55:20.248Z,47.51
2018-05-31T10:56:20.219Z,46.32
2018-05-31T10:57:20.214Z,45.50
2018-05-31T10:58:20.171Z,46.15
2018-05-31T10:59:20.349Z,48.11
2018-05-31T11:00:20.272Z,47.31
2018-05-31T11:01:20.221Z,50.13
2018-05-31T11:02:20.184Z,44.60
2018-05-31T11:03:20.255Z,47.78
2018-05-31T11:04:20.187Z,47.00
2018-05-31T11:05:20.258Z,46.07
2018-05-31T11:06:20.242Z,47.20
2018-05-31T11:07:20.259Z,45.87
2018-05-31T11:08:20.191Z,46.50
2018-05-31T11:09:20.192Z,46.85
2018-05-31T11:10:20.261Z,46.98
2018-05-31T11:11:20.260Z,47.38
2018-05-31T11:12:20.155Z,48.94
2018-05-31T11:13:20.276Z,49.02
2018-05-31T11:14:20.223Z,48.34
2018-05-31T11:15:20.285Z,46.45
2018-05-31T11:16:20.225Z,46.48
2018-05-31T11:17:20.164Z,46.07
2018-05-31T11:18:20.260Z,50.40
2018-05-31T11:19:20.223Z,51.21
2018-05-31T11:20:20.220Z,49.72
2018-05-31T11:21:20.260Z,47.91
2018-05-31T11:22:20.199Z,46.40
2018-05-31T11:23:20.264Z,46.07
2018-05-31T11:24:20.267Z,48.39
2018-05-31T11:25:20.271Z,45.82
2018-05-31T11:26:20.304Z,48.36
2018-05-31T11:27:20.200Z,47.48
2018-05-31T11:28:20.280Z,52.25
2018-05-31T11:29:20.305Z,49.75
2018-05-31T11:30:20.204Z,51.39
2018-05-31T11:31:20.274Z,45.98
2018-05-31T11:32:20.215Z,47.86
2018-05-31T11:33:20.239Z,45.32
2018-05-31T11:34:20.253Z,48.54
2018-05-31T11:35:20.182Z,47.20
2018-05-31T11:36:20.250Z,47.15
2018-05-31T11:37:20.295Z,47.20
2018-05-31T11:38:20.237Z,45.07
2018-05-31T11:39:20.313Z,46.27
2018-05-31T11:40:20.248Z,44.87
2018-05-31T11:41:20.278Z,46.60
2018-05-31T11:42:20.223Z,45.43
2018-05-31T11:43:20.225Z,45.80
2018-05-31T11:44:20.134Z,46.48
2018-05-31T11:45:20.136Z,45.27
2018-05-31T11:46:20.228Z,47.06
2018-05-31T11:47:20.228Z,45.30
2018-05-31T11:48:20.136Z,50.35
2018-05-31T11:49:20.141Z,46.70
2018-05-31T11:50:20.180Z,52.70
2018-05-31T11:51:20.143Z,47.98
2018-05-31T11:52:20.172Z,50.71
2018-05-31T11:53:20.280Z,45.05
2018-05-31T11:54:20.163Z,44.82
2018-05-31T11:55:20.187Z,45.77
2018-05-31T11:56:20.308Z,44.64
2018-05-31T11:57:20.196Z,43.08
2018-05-31T11:58:20.195Z,44.57
2018-05-31T11:59:20.231Z,45.40
2018-05-31T12:00:20.273Z,42.33
2018-05-31T12:01:20.296Z,45.68
2018-05-31T12:02:20.292Z,44.05
2018-05-31T12:03:20.292Z,44.60
2018-05-31T12:04:20.293Z,46.58
2018-05-31T12:05:20.226Z,43.97
2018-05-31T12:06:20.229Z,45.68
2018-05-31T12:07:20.228Z,46.02
2018-05-31T12:08:20.257Z,48.26
2018-05-31T12:09:20.314Z,47.00
2018-05-31T12:10:20.229Z,45.15
2018-05-31T12:11:20.201Z,50.25
2018-05-31T12:12:20.286Z,50.18
2018-05-31T12:13:20.165Z,45.77
2018-05-31T12:14:20.202Z,44.32
2018-05-31T12:15:20.167Z,48.11
2018-05-31T12:16:20.207Z,42.78
2018-05-31T12:17:20.268Z,41.35
2018-05-31T12:18:20.306Z,43.20
2018-05-31T12:19:20.291Z,41.21
2018-05-31T12:20:20.293Z,40.59
2018-05-31T12:21:20.288Z,40.59
2018-05-31T12:22:20.329Z,42.62
2018-05-31T12:23:20.302Z,41.23
2018-05-31T12:24:20.215Z,44.70
2018-05-31T12:25:20.299Z,41.80
2018-05-31T12:26:20.338Z,41.95
2018-05-31T12:27:20.343Z,48.11
2018-05-31T12:28:20.275Z,40.93
2018-05-31T12:29:20.269Z,47.15
2018-05-31T12:30:20.337Z,41.68
2018-05-31T12:31:20.337Z,42.62
2018-05-31T12:32:20.271Z,40.11
2018-05-31T12:33:20.203Z,39.49
2018-05-31T12:34:20.185Z,40.56
2018-05-31T12:35:20.269Z,41.80
2018-05-31T12:36:20.247Z,43.17
2018-05-31T12:37:20.303Z,44.85
2018-05-31T12:38:20.274Z,42.12
2018-05-31T12:39:20.186Z,39.07
2018-05-31T12:40:20.245Z,40.09
2018-05-31T12:41:20.253Z,38.43
2018-05-31T12:42:20.292Z,40.76
2018-05-31T12:43:20.277Z,38.10
2018-05-31T12:44:20.257Z,37.86
2018-05-31T12:45:20.290Z,37.06
2018-05-31T12:46:20.299Z,41.95
2018-05-31T12:47:20.355Z,38.92
2018-05-31T12:48:20.296Z,37.96
2018-05-31T12:49:20.366Z,37.41
2018-05-31T12:50:20.351Z,38.57
2018-05-31T12:51:20.359Z,35.86
2018-05-31T12:52:20.234Z,36.62